Citrix Systems Current Ratio 2006-2019 | CTXS

Current and historical current ratio for Citrix Systems (CTXS) from 2006 to 2019. Current ratio can be defined as a liquidity ratio that measures a company's ability to pay short-term obligations. Citrix Systems current ratio for the three months ending March 31, 2019 was 0.86.
Citrix Systems Current Ratio Historical Data
Date Current Assets Current Liabilities Current Ratio
2019-03-31 $2.45B $2.84B 0.86
2018-12-31 $2.09B $2.91B 0.72
2018-09-30 $2.50B $3.02B 0.83
2018-06-30 $2.27B $3.01B 0.75
2018-03-31 $2.08B $1.52B 1.36
2017-12-31 $2.62B $1.69B 1.55
2017-09-30 $2.15B $1.50B 1.44
2017-06-30 $2.09B $1.55B 1.35
2017-03-31 $2.09B $1.63B 1.28
2016-12-31 $2.56B $3.10B 0.83
2016-09-30 $2.27B $2.95B 0.77
2016-06-30 $2.00B $1.63B 1.23
2016-03-31 $1.79B $1.62B 1.10
2015-12-31 $1.68B $1.68B 1.00
2015-09-30 $1.74B $1.55B 1.12
2015-06-30 $1.59B $1.52B 1.04
2015-03-31 $1.67B $1.63B 1.02
2014-12-31 $1.69B $1.59B 1.06
2014-09-30 $1.45B $1.46B 0.99
2014-06-30 $1.54B $1.48B 1.05
2014-03-31 $1.54B $1.45B 1.06
2013-12-31 $1.56B $1.46B 1.07
2013-09-30 $1.33B $1.34B 0.99
2013-06-30 $1.37B $1.35B 1.02
2013-03-31 $1.30B $1.30B 1.00
2012-12-31 $1.71B $1.34B 1.28
2012-09-30 $1.32B $1.17B 1.13
2012-06-30 $1.88B $1.13B 1.65
2012-03-31 $1.42B $1.17B 1.22
2011-12-31 $1.37B $1.18B 1.16
2011-09-30 $1.31B $1.05B 1.25
2011-06-30 $1.45B $1.04B 1.40
2011-03-31 $1.43B $0.97B 1.47
2010-12-31 $1.47B $1.02B 1.44
2010-09-30 $1.39B $0.89B 1.56
2010-06-30 $1.31B $0.88B 1.48
2010-03-31 $1.09B $0.83B 1.30
2009-12-31 $1.04B $0.83B 1.25
2009-09-30 $0.96B $0.73B 1.33
2009-06-30 $0.95B $0.72B 1.32
2009-03-31 $0.89B $0.72B 1.24
2008-12-31 $0.94B $0.73B 1.29
2008-09-30 $0.89B $0.69B 1.30
2008-06-30 $0.83B $0.67B 1.23
2008-03-31 $0.78B $0.66B 1.18
2007-12-31 $0.93B $0.65B 1.43
2007-09-30 $1.04B $0.62B 1.67
2007-06-30 $1.03B $0.62B 1.68
2007-03-31 $0.94B $0.59B 1.61
2006-12-31 $0.81B $0.54B 1.52
2006-09-30 $0.70B $0.45B 1.55
2006-06-30 $0.86B $0.45B 1.92
2006-03-31 $0.78B $0.43B 1.82
2005-12-31 $0.73B $0.43B 1.68
2005-09-30 $0.70B $0.40B 1.74
2005-06-30 $0.57B $0.38B 1.50
2005-03-31 $0.47B $0.34B 1.40
Sector Industry Market Cap Revenue
Computer and Technology Computer Software $12.532B $2.974B
Citrix Systems, Inc. aims to power a world where people, organizations and things are securely connected and accessible to make the extraordinary possible. They help customers reimaging the future of work by providing the most comprehensive secure digital workspace that unifies the apps, data and services people need to be productive, and simplifies IT's ability to adopt and manage complex cloud environments. Citrix Systems become the leader in Workspace as a Service (WaaS) by delivering the industry's most comprehensive and integrated platform for secure app, data and network delivery as a service in the Citrix Cloud. Citrix Systems become the preferred and most-used solution for enterprise file synchronization and sharing (EFSS) for business users across all segments.
Stock Name Country Market Cap PE Ratio
Microsoft (MSFT) United States $971.560B 27.98
Oracle (ORCL) United States $219.730B 17.40
SAP SE (SAP) Germany $155.529B 30.00
Adobe (ADBE) United States $133.821B 48.37
Salesforce, Inc (CRM) United States $118.475B 102.47
VMware (VMW) United States $80.734B 40.47
Intuit (INTU) United States $62.517B 40.42
Autodesk (ADSK) United States $37.324B 513.76
Red Hat (RHT) United States $33.064B 67.15
Cadence Design Systems (CDNS) United States $17.907B 45.51
Synopsys (SNPS) United States $17.514B 29.55
ANSYS (ANSS) United States $15.116B 34.77
SS&C Technologies Holdings (SSNC) United States $14.279B 18.94
Symantec (SYMC) United States $12.765B 17.36
Open Text (OTEX) Canada $10.865B 39.56
PTC (PTC) United States $9.752B 79.97
Aspen Technology (AZPN) United States $7.846B 40.78
Pegasystems (PEGA) United States $5.757B 0.00
Nuance Communications (NUAN) United States $5.115B 19.81
Manhattan Associates (MANH) United States $4.246B 41.87
Blackbaud (BLKB) United States $3.782B 47.47
Verint Systems (VRNT) United States $3.650B 23.71
ACI Worldwide (ACIW) United States $3.492B 45.11
Cornerstone OnDemand (CSOD) United States $3.169B 0.00
Descartes Systems Group (DSGX) Canada $3.135B 101.50
CommVault Systems (CVLT) United States $2.169B 91.33
PROS Holdings (PRO) United States $1.987B 0.00
Bottomline Technologies (EPAY) United States $1.939B 59.43
Progress Software (PRGS) United States $1.877B 20.38
MicroStrategy (MSTR) United States $1.371B 171.69
Monotype Imaging Holdings (TYPE) United States $0.695B 21.83
QAD (QADB) United States $0.667B 68.00
Rosetta Stone (RST) United States $0.596B 0.00
Simulations Plus (SLP) United States $0.435B 60.54
Magic Software Enterprises (MGIC) Israel $0.430B 15.71
American Software (AMSWA) United States $0.409B 52.52
Avid Technology (AVID) United States $0.333B 25.58
OptimizeRx (OPRX) United States $0.183B 377.50
GlobalSCAPE (GSB) United States $0.144B 21.41
Park City (PCYG) United States $0.113B 24.78
Icad Inc (ICAD) United States $0.106B 0.00
Smith Micro Software (SMSI) United States $0.100B 44.57
ServiceSource (SREV) United States $0.091B 0.00
NetSol Technologies (NTWK) United States $0.068B 10.80
GSE Systems (GVP) United States $0.046B 10.95
Neonode (NEON) Sweden $0.027B 0.00
BSQUARE (BSQR) United States $0.019B 0.00
CounterPath (CPAH) Canada $0.008B 0.00
Sapiens (SPNS) Israel $0.000B 0.00